Terminal Aerodrome Forecast
Issued by NWS Sterling, VA

Home | Current Version | Previous Version | Text Only | Print | Product List | Glossary On
Versions: 1 2 3 4 5 6 7 8 9 10 11 12 13 14 15 16 17 18 19 20 21 22 23 24 25 26 27 28 29 30 31 32 33
000
FTUS41 KLWX 210536
TAFIAD
TAF
KIAD 210536Z 2106/2212 31005KT P6SM BKN050
     FM210900 32009KT P6SM BKN050
     FM211100 31007KT P6SM SCT080
     FM211700 27013G20KT P6SM SCT250
     FM212300 24009KT P6SM SCT090
     FM220800 22006KT P6SM BKN080=

USA.gov is the U.S. government's official web portal to all federal, state and local government web resources and services.